Time;durP1;ratioP1;P1;durP2;ratioP2;P2;SDS_P1;SDS_P2;PMS_P1;PMS_P2;Temp;Humidity;BMP_temperature;BMP_pressure;BME280_temperature;BME280_humidity;BME280_pressure;Samples;Min_cycle;Max_cycle;Signal;HPM_P1;HPM_P2
2021/05/13 00:00:38;;;;;;;35.53;28.57;;;9.20;99.90;;;;;;5105823;28;20480;-82
2021/05/13 00:03:18;;;;;;;36.00;26.50;;;9.20;99.90;;;;;;5106699;28;20589;-81
2021/05/13 00:06:00;;;;;;;33.83;27.43;;;9.20;99.90;;;;;;5103917;28;20455;-81
2021/05/13 00:08:35;;;;;;;34.60;28.53;;;9.20;99.90;;;;;;5105112;28;20450;-84
2021/05/13 00:11:11;;;;;;;36.27;28.17;;;9.20;99.90;;;;;;5102017;28;20459;-82
2021/05/13 00:13:48;;;;;;;32.97;27.53;;;9.20;99.90;;;;;;5091110;28;20444;-83
2021/05/13 00:16:27;;;;;;;37.67;29.17;;;9.20;99.90;;;;;;5104567;28;20457;-80
2021/05/13 00:19:17;;;;;;;40.30;30.27;;;9.20;99.90;;;;;;5102937;28;20450;-82
2021/05/13 00:24:40;;;;;;;38.03;28.37;;;9.20;99.90;;;;;;5101453;28;20452;-86
2021/05/13 00:27:18;;;;;;;35.83;28.33;;;9.20;99.90;;;;;;5104463;28;20535;-82
2021/05/13 00:29:52;;;;;;;32.40;29.10;;;9.20;99.90;;;;;;5092370;28;20438;-80
2021/05/13 00:32:27;;;;;;;31.20;27.40;;;9.10;99.90;;;;;;5104649;28;20455;-83
2021/05/13 00:35:05;;;;;;;31.83;27.50;;;9.00;99.90;;;;;;5100180;28;20524;-85
2021/05/13 00:37:41;;;;;;;34.80;30.80;;;9.00;99.90;;;;;;5104011;28;20451;-85
2021/05/13 00:40:19;;;;;;;33.27;28.67;;;9.00;99.90;;;;;;5097962;28;20451;-82
2021/05/13 00:42:51;;;;;;;38.70;31.83;;;9.00;99.90;;;;;;5107300;28;20465;-81
2021/05/13 00:45:27;;;;;;;38.00;30.80;;;8.90;99.90;;;;;;5111647;28;20448;-82
2021/05/13 00:48:06;;;;;;;37.20;29.80;;;8.90;99.90;;;;;;5109155;28;20496;-82
2021/05/13 00:50:42;;;;;;;37.80;29.90;;;8.90;99.90;;;;;;5097356;28;20448;-80
2021/05/13 00:53:18;;;;;;;40.97;30.43;;;8.90;99.90;;;;;;5108970;28;20454;-83
2021/05/13 00:55:56;;;;;;;41.47;31.70;;;8.90;99.90;;;;;;5088028;28;20451;-80
2021/05/13 00:58:34;;;;;;;35.10;30.30;;;8.80;99.90;;;;;;5101965;28;20457;-82
2021/05/13 01:01:11;;;;;;;37.53;31.30;;;8.80;99.90;;;;;;5105212;28;20444;-82
2021/05/13 01:03:46;;;;;;;39.83;32.03;;;8.90;99.90;;;;;;5100985;28;21121;-83
2021/05/13 01:06:24;;;;;;;37.53;31.40;;;8.80;99.90;;;;;;5106127;28;20472;-82
2021/05/13 01:09:08;;;;;;;40.30;32.90;;;8.80;99.90;;;;;;5104768;28;20453;-84
2021/05/13 01:11:44;;;;;;;38.00;31.37;;;8.80;99.90;;;;;;5107872;28;20524;-83
2021/05/13 01:14:22;;;;;;;39.47;31.07;;;8.80;99.90;;;;;;5094442;28;20451;-86
2021/05/13 01:17:05;;;;;;;39.60;31.77;;;8.80;99.90;;;;;;5085165;28;20459;-82
2021/05/13 01:19:38;;;;;;;40.47;31.60;;;8.80;99.90;;;;;;5104888;28;20527;-80
2021/05/13 01:22:14;;;;;;;38.20;30.60;;;8.80;99.90;;;;;;5103069;28;20474;-80
2021/05/13 01:24:52;;;;;;;42.70;33.00;;;8.80;99.90;;;;;;5103292;28;20523;-80
2021/05/13 01:27:27;;;;;;;41.50;32.50;;;8.70;99.90;;;;;;5104591;28;20453;-80
2021/05/13 01:30:02;;;;;;;38.30;33.10;;;8.70;99.90;;;;;;5085720;28;20451;-83
2021/05/13 01:32:37;;;;;;;37.07;30.80;;;8.70;99.90;;;;;;5105842;28;20445;-83
2021/05/13 01:35:20;;;;;;;39.63;32.10;;;8.70;99.90;;;;;;5107916;28;20443;-84
2021/05/13 01:38:06;;;;;;;40.93;31.97;;;8.60;99.90;;;;;;5108705;28;20612;-84
2021/05/13 01:40:43;;;;;;;42.60;32.80;;;8.60;99.90;;;;;;5109986;28;20474;-81
2021/05/13 01:43:18;;;;;;;38.50;30.80;;;8.60;99.90;;;;;;5110682;28;20481;-82
2021/05/13 01:45:52;;;;;;;38.57;31.13;;;8.50;99.90;;;;;;5088678;28;20440;-80
2021/05/13 01:48:27;;;;;;;43.43;31.87;;;8.60;99.90;;;;;;5108168;28;20979;-82
2021/05/13 01:51:02;;;;;;;39.47;31.97;;;8.60;99.90;;;;;;5106149;28;20463;-82
2021/05/13 01:53:41;;;;;;;40.77;33.70;;;8.50;99.90;;;;;;5106003;28;20478;-84
2021/05/13 01:56:22;;;;;;;42.80;35.27;;;8.50;99.90;;;;;;5104889;28;20448;-82
2021/05/13 02:01:44;;;;;;;45.40;37.40;;;8.50;99.90;;;;;;5102613;28;21013;-81
2021/05/13 02:04:17;;;;;;;47.67;36.30;;;8.50;99.90;;;;;;5100761;28;20461;-81
2021/05/13 02:06:51;;;;;;;43.03;34.27;;;8.50;99.90;;;;;;5103424;28;20454;-83
2021/05/13 02:09:28;;;;;;;52.97;35.47;;;8.50;99.90;;;;;;5099122;28;20441;-81
2021/05/13 02:12:04;;;;;;;45.00;34.20;;;8.50;99.90;;;;;;5104629;28;20487;-81
2021/05/13 02:14:39;;;;;;;49.13;36.30;;;8.40;99.90;;;;;;5102866;28;20454;-79
2021/05/13 02:17:24;;;;;;;46.50;36.43;;;8.40;99.90;;;;;;5105217;28;20525;-83
2021/05/13 02:20:09;;;;;;;46.43;36.60;;;8.40;99.90;;;;;;5100607;28;20781;-82
2021/05/13 02:22:46;;;;;;;46.87;35.73;;;8.40;99.90;;;;;;5092917;28;20494;-81
2021/05/13 02:25:22;;;;;;;51.00;35.60;;;8.40;99.90;;;;;;5103721;28;20468;-82
2021/05/13 02:28:02;;;;;;;48.10;34.97;;;8.40;99.90;;;;;;5105216;28;20452;-82
2021/05/13 02:30:45;;;;;;;51.23;38.10;;;8.40;99.90;;;;;;5101407;28;20448;-84
2021/05/13 02:33:20;;;;;;;47.10;34.83;;;8.40;99.90;;;;;;5109221;28;20467;-83
2021/05/13 02:35:56;;;;;;;49.73;37.23;;;8.40;99.90;;;;;;5112009;28;20437;-83
2021/05/13 02:41:28;;;;;;;49.27;33.90;;;8.40;99.90;;;;;;5109062;28;20438;-84
2021/05/13 02:44:03;;;;;;;49.00;36.43;;;8.40;99.90;;;;;;5116492;28;20450;-81
2021/05/13 02:46:37;;;;;;;44.50;34.70;;;8.40;99.90;;;;;;5116152;28;20503;-81
2021/05/13 02:49:15;;;;;;;44.90;33.43;;;8.40;99.90;;;;;;5117050;28;20452;-80
2021/05/13 02:51:57;;;;;;;44.67;34.40;;;8.40;99.90;;;;;;5094780;28;20475;-79
2021/05/13 02:54:33;;;;;;;50.80;37.00;;;8.50;99.90;;;;;;5101454;28;20464;-81
2021/05/13 02:57:09;;;;;;;43.50;32.57;;;8.40;99.90;;;;;;5107796;28;20468;-83
2021/05/13 02:59:46;;;;;;;42.13;33.83;;;8.40;99.90;;;;;;5090211;28;20459;-82
2021/05/13 03:02:26;;;;;;;40.13;34.10;;;8.40;99.90;;;;;;5105349;28;20482;-85
2021/05/13 03:05:02;;;;;;;53.03;37.47;;;8.40;99.90;;;;;;5102311;28;20450;-81
2021/05/13 03:07:47;;;;;;;41.70;34.63;;;8.40;99.90;;;;;;5099292;28;20452;-85
2021/05/13 03:10:33;;;;;;;42.07;33.47;;;8.40;99.90;;;;;;5103473;28;20444;-81
2021/05/13 03:13:23;;;;;;;41.70;33.10;;;8.40;99.90;;;;;;5105004;28;20975;-81
2021/05/13 03:16:05;;;;;;;38.47;33.00;;;8.40;99.90;;;;;;5104814;28;20467;-83
2021/05/13 03:18:43;;;;;;;44.07;32.00;;;8.40;99.90;;;;;;5103147;28;20484;-81
2021/05/13 03:21:32;;;;;;;43.37;33.87;;;8.40;99.90;;;;;;5096024;28;20467;-83
2021/05/13 03:24:12;;;;;;;44.00;34.70;;;8.50;99.90;;;;;;5098680;28;20457;-83
2021/05/13 03:26:57;;;;;;;41.23;34.77;;;8.50;99.90;;;;;;5101510;28;20526;-85
2021/05/13 03:29:33;;;;;;;44.50;33.70;;;8.40;99.90;;;;;;5098880;28;20462;-82
2021/05/13 03:32:14;;;;;;;42.47;33.17;;;8.40;99.90;;;;;;5100343;28;20446;-84
2021/05/13 03:34:56;;;;;;;38.63;30.97;;;8.40;99.90;;;;;;5103208;28;20453;-83
2021/05/13 03:37:39;;;;;;;40.07;32.73;;;8.40;99.90;;;;;;5102691;28;20468;-82
2021/05/13 03:40:14;;;;;;;38.90;31.67;;;8.40;99.90;;;;;;5105737;28;20448;-83
2021/05/13 03:42:53;;;;;;;39.20;32.20;;;8.50;99.90;;;;;;5096852;28;22614;-82
2021/05/13 03:45:52;;;;;;;41.23;32.13;;;8.50;99.90;;;;;;5100195;28;20493;-83
2021/05/13 03:48:39;;;;;;;41.93;33.50;;;8.50;99.90;;;;;;5083359;28;20460;-83
2021/05/13 03:51:16;;;;;;;38.87;30.40;;;8.50;99.90;;;;;;5083251;28;20504;-83
2021/05/13 03:53:58;;;;;;;39.47;30.30;;;8.50;99.90;;;;;;5096347;28;20445;-82
2021/05/13 03:59:42;;;;;;;33.47;29.87;;;8.50;99.90;;;;;;5100300;28;20735;-84
2021/05/13 04:02:31;;;;;;;42.20;30.47;;;8.50;99.90;;;;;;5104711;28;20486;-84
2021/05/13 04:05:08;;;;;;;38.27;30.67;;;8.60;99.90;;;;;;5097362;28;20509;-83
2021/05/13 04:10:56;;;;;;;36.40;30.10;;;8.60;99.90;;;;;;5100143;28;20528;-85
2021/05/13 04:13:40;;;;;;;37.93;31.90;;;8.70;99.90;;;;;;5104395;28;20444;-82
2021/05/13 04:16:32;;;;;;;37.63;31.37;;;8.70;99.90;;;;;;5103111;28;20453;-82
2021/05/13 04:19:21;;;;;;;37.03;31.90;;;8.70;99.90;;;;;;5107101;28;20637;-82
2021/05/13 04:21:59;;;;;;;35.70;30.67;;;8.70;99.90;;;;;;5109057;28;20459;-83
2021/05/13 04:24:34;;;;;;;34.70;29.40;;;8.70;99.90;;;;;;5106310;28;20493;-83
2021/05/13 04:27:06;;;;;;;38.87;28.83;;;8.80;99.90;;;;;;5105089;28;20449;-83
2021/05/13 04:29:42;;;;;;;33.33;27.43;;;8.80;99.90;;;;;;5105702;28;20498;-83
2021/05/13 04:32:32;;;;;;;37.03;28.17;;;8.80;99.90;;;;;;5110499;28;20524;-84
2021/05/13 04:35:08;;;;;;;30.17;26.90;;;8.90;99.90;;;;;;5102925;28;20451;-84
2021/05/13 04:37:40;;;;;;;34.27;26.27;;;8.90;99.90;;;;;;5091025;28;20447;-82
2021/05/13 04:40:20;;;;;;;29.60;26.40;;;9.00;99.90;;;;;;5103268;28;20459;-83
2021/05/13 04:43:10;;;;;;;28.00;25.13;;;9.00;99.90;;;;;;5105988;28;20456;-82
2021/05/13 04:45:51;;;;;;;29.27;25.50;;;9.00;99.90;;;;;;5112044;28;20450;-81
2021/05/13 04:48:51;;;;;;;27.13;23.60;;;9.00;99.90;;;;;;5105929;28;20452;-85
2021/05/13 04:51:29;;;;;;;26.37;23.20;;;9.10;99.90;;;;;;5106019;28;20554;-81
2021/05/13 04:54:15;;;;;;;26.60;23.70;;;9.10;99.90;;;;;;5086220;28;20450;-82
2021/05/13 04:56:56;;;;;;;24.37;22.07;;;9.20;99.90;;;;;;5103944;28;20443;-84
2021/05/13 04:59:42;;;;;;;25.37;22.67;;;9.20;99.90;;;;;;5108173;28;20447;-82
2021/05/13 05:02:20;;;;;;;25.80;23.07;;;9.20;99.90;;;;;;5103213;28;20546;-84
2021/05/13 05:04:57;;;;;;;25.43;21.57;;;9.30;99.90;;;;;;5106201;28;20449;-83
2021/05/13 05:07:46;;;;;;;23.00;20.50;;;9.30;99.90;;;;;;5088709;28;20463;-84
2021/05/13 05:10:21;;;;;;;21.97;19.80;;;9.30;99.90;;;;;;5108949;28;20440;-82
2021/05/13 05:13:01;;;;;;;22.33;20.13;;;9.20;99.90;;;;;;5089919;28;20473;-82
2021/05/13 05:15:42;;;;;;;20.93;18.73;;;9.20;99.90;;;;;;5101859;28;20451;-82
2021/05/13 05:18:16;;;;;;;21.33;19.13;;;9.40;99.90;;;;;;5100228;28;20962;-84
2021/05/13 05:20:58;;;;;;;21.77;19.40;;;9.30;99.90;;;;;;5103933;28;20547;-83
2021/05/13 05:23:39;;;;;;;21.63;19.43;;;9.30;99.90;;;;;;5101549;28;20826;-83
2021/05/13 05:26:13;;;;;;;24.50;20.20;;;9.30;99.90;;;;;;5109020;28;20547;-83
2021/05/13 05:28:49;;;;;;;21.77;19.57;;;9.40;99.90;;;;;;5103420;28;20564;-82
2021/05/13 05:31:24;;;;;;;21.33;19.13;;;9.40;99.90;;;;;;5084032;28;20541;-82
2021/05/13 05:33:59;;;;;;;23.27;20.77;;;9.40;99.90;;;;;;5096474;28;20447;-82
2021/05/13 05:36:33;;;;;;;24.23;21.43;;;9.40;99.90;;;;;;5098329;28;20452;-84
2021/05/13 05:39:10;;;;;;;22.23;19.10;;;9.60;99.90;;;;;;5096519;28;20581;-83
2021/05/13 05:41:45;;;;;;;23.00;20.57;;;9.50;99.90;;;;;;5101589;28;20447;-82
2021/05/13 05:44:25;;;;;;;21.10;19.10;;;9.60;99.90;;;;;;5097385;28;20837;-82
2021/05/13 05:47:00;;;;;;;21.97;19.77;;;9.70;99.90;;;;;;5092708;28;20440;-83
2021/05/13 05:49:35;;;;;;;22.13;19.50;;;9.90;99.90;;;;;;5098414;28;20448;-82
2021/05/13 05:52:11;;;;;;;19.23;17.30;;;10.00;99.90;;;;;;5100287;28;20502;-82
2021/05/13 05:54:47;;;;;;;21.53;19.33;;;10.10;99.90;;;;;;5101947;28;20458;-83
2021/05/13 05:57:22;;;;;;;21.27;19.17;;;10.00;99.90;;;;;;5101641;28;20443;-82
2021/05/13 05:59:58;;;;;;;20.07;18.13;;;10.10;99.90;;;;;;5099832;28;20527;-83
2021/05/13 06:02:42;;;;;;;19.80;17.70;;;10.10;99.90;;;;;;5102101;28;20570;-83
2021/05/13 06:05:18;;;;;;;20.60;17.90;;;10.10;99.90;;;;;;5099959;28;20451;-84
2021/05/13 06:07:57;;;;;;;20.20;18.20;;;10.10;99.90;;;;;;5100182;28;20528;-83
2021/05/13 06:10:39;;;;;;;19.33;17.53;;;10.10;99.90;;;;;;5081859;28;20441;-83
2021/05/13 06:13:20;;;;;;;20.00;18.00;;;10.10;99.90;;;;;;5101932;28;20530;-85
2021/05/13 06:15:55;;;;;;;19.50;17.40;;;10.20;99.90;;;;;;5108946;28;20458;-85
2021/05/13 06:18:30;;;;;;;19.20;17.13;;;10.30;99.90;;;;;;5109511;28;20456;-83
2021/05/13 06:21:05;;;;;;;19.37;17.40;;;10.40;99.90;;;;;;5109459;28;20464;-83
2021/05/13 06:23:40;;;;;;;20.40;18.30;;;10.30;99.90;;;;;;5111300;28;20445;-84
2021/05/13 06:26:51;;;;;;;19.60;17.80;;;10.40;99.90;;;;;;5110931;28;20430;-83
2021/05/13 06:29:27;;;;;;;19.20;17.30;;;10.50;99.90;;;;;;5102902;28;20497;-83
2021/05/13 06:32:07;;;;;;;17.70;16.00;;;10.50;99.90;;;;;;5103514;28;20451;-83
2021/05/13 06:34:42;;;;;;;19.40;17.27;;;10.50;99.90;;;;;;5100518;28;20455;-82
2021/05/13 06:37:17;;;;;;;19.63;16.50;;;10.60;99.90;;;;;;5097343;28;20542;-82
2021/05/13 06:39:51;;;;;;;19.17;17.23;;;10.60;99.90;;;;;;5101413;28;20471;-82
2021/05/13 06:42:27;;;;;;;20.13;18.20;;;10.70;99.90;;;;;;5102699;28;20473;-86
2021/05/13 06:45:03;;;;;;;18.70;17.00;;;11.10;99.90;;;;;;5097827;28;20458;-83
2021/05/13 06:47:43;;;;;;;17.73;16.03;;;11.20;99.90;;;;;;5100542;28;20449;-84
2021/05/13 06:50:20;;;;;;;16.37;14.80;;;11.40;99.90;;;;;;5108050;28;20450;-85
2021/05/13 06:53:06;;;;;;;16.27;14.67;;;11.20;99.90;;;;;;5110545;28;20469;-84
2021/05/13 06:55:41;;;;;;;16.00;14.50;;;11.30;98.20;;;;;;5101318;28;20454;-85
2021/05/13 06:58:26;;;;;;;16.60;14.83;;;11.30;99.90;;;;;;5106078;28;20448;-84
2021/05/13 07:00:58;;;;;;;15.57;14.07;;;11.30;99.90;;;;;;5095249;28;20449;-85
2021/05/13 07:03:33;;;;;;;14.20;12.90;;;11.70;97.40;;;;;;5107863;28;20533;-83
2021/05/13 07:06:06;;;;;;;17.90;13.90;;;12.00;99.90;;;;;;5101232;28;20520;-83
2021/05/13 07:08:46;;;;;;;15.07;13.73;;;12.10;94.90;;;;;;5109647;28;20456;-84
2021/05/13 07:11:20;;;;;;;14.50;13.20;;;12.60;95.60;;;;;;5101903;28;20550;-85
2021/05/13 07:13:59;;;;;;;15.40;13.80;;;12.10;93.30;;;;;;5107944;28;20454;-83
2021/05/13 07:16:34;;;;;;;14.47;13.00;;;12.40;96.90;;;;;;5096096;28;20955;-83
2021/05/13 07:19:17;;;;;;;14.03;12.37;;;12.20;94.10;;;;;;5099452;28;20470;-82
2021/05/13 07:21:54;;;;;;;14.23;13.03;;;12.40;93.30;;;;;;5101912;28;20541;-83
2021/05/13 07:24:29;;;;;;;13.97;12.67;;;12.80;92.90;;;;;;5105505;28;20558;-83
2021/05/13 07:27:09;;;;;;;13.30;12.13;;;13.00;91.20;;;;;;5095053;28;20531;-82
2021/05/13 07:29:45;;;;;;;12.90;11.70;;;13.30;91.40;;;;;;5103183;28;20450;-81
2021/05/13 07:32:21;;;;;;;13.97;12.50;;;13.40;90.70;;;;;;5096377;28;20470;-83
2021/05/13 07:34:56;;;;;;;12.80;11.60;;;13.70;88.50;;;;;;5098733;28;20506;-83
2021/05/13 07:37:27;;;;;;;11.63;10.53;;;13.80;89.00;;;;;;5100410;28;20453;-81
2021/05/13 07:40:02;;;;;;;12.50;11.23;;;13.80;86.70;;;;;;5098792;28;20548;-84
2021/05/13 07:42:37;;;;;;;12.50;11.30;;;13.40;86.20;;;;;;5095144;28;20642;-82
2021/05/13 07:45:16;;;;;;;11.37;10.40;;;13.70;89.10;;;;;;5076468;28;20457;-84
2021/05/13 07:47:51;;;;;;;11.10;10.00;;;14.10;84.70;;;;;;5097564;28;20439;-81
2021/05/13 07:50:27;;;;;;;10.27;9.27;;;13.70;85.80;;;;;;5101318;28;20453;-82
2021/05/13 07:53:07;;;;;;;10.97;9.93;;;13.50;86.00;;;;;;5097833;28;20637;-81
2021/05/13 07:55:42;;;;;;;10.40;9.60;;;13.50;84.60;;;;;;5100737;28;20442;-80
2021/05/13 07:58:28;;;;;;;9.70;8.90;;;13.80;84.80;;;;;;5098308;28;20481;-81
2021/05/13 08:01:04;;;;;;;9.13;8.23;;;14.30;85.20;;;;;;5101566;28;20462;-82
2021/05/13 08:03:46;;;;;;;9.13;8.33;;;14.50;82.20;;;;;;5101724;28;20459;-82
2021/05/13 08:06:20;;;;;;;8.93;8.23;;;14.50;82.50;;;;;;5100298;28;20451;-83
2021/05/13 08:08:55;;;;;;;9.37;8.00;;;14.60;82.10;;;;;;5100450;28;20459;-82
2021/05/13 08:11:30;;;;;;;8.93;8.17;;;14.00;80.50;;;;;;5104272;28;20454;-83
2021/05/13 08:14:06;;;;;;;8.97;8.17;;;14.20;80.60;;;;;;5100092;28;20458;-80
2021/05/13 08:16:39;;;;;;;9.90;8.53;;;13.70;80.30;;;;;;5094481;28;20460;-80
2021/05/13 08:19:11;;;;;;;8.73;8.03;;;13.40;81.30;;;;;;5093500;28;20986;-80
2021/05/13 08:21:47;;;;;;;9.27;8.40;;;13.90;82.10;;;;;;5097546;28;20825;-81
2021/05/13 08:24:22;;;;;;;11.10;9.83;;;13.60;80.60;;;;;;5092233;28;20474;-84
2021/05/13 08:27:00;;;;;;;10.90;10.00;;;13.90;82.70;;;;;;5088473;28;20931;-78
2021/05/13 08:29:35;;;;;;;10.47;9.50;;;13.80;82.90;;;;;;5085748;28;20735;-84
2021/05/13 08:32:11;;;;;;;10.13;9.13;;;14.50;82.20;;;;;;5086899;28;20440;-78
2021/05/13 08:34:46;;;;;;;11.67;10.67;;;14.70;81.90;;;;;;5087635;28;20481;-78
2021/05/13 08:37:21;;;;;;;11.30;10.30;;;14.60;81.00;;;;;;5087447;28;20554;-78
2021/05/13 08:39:56;;;;;;;13.90;10.27;;;14.50;80.90;;;;;;5088094;28;20794;-81
2021/05/13 08:42:31;;;;;;;10.17;9.27;;;15.50;82.20;;;;;;5088198;28;20509;-79
2021/05/13 08:45:07;;;;;;;9.17;8.30;;;15.80;79.70;;;;;;5083496;28;20974;-78
2021/05/13 08:47:46;;;;;;;8.97;8.13;;;16.10;78.30;;;;;;5086168;28;20440;-77
2021/05/13 08:50:18;;;;;;;8.40;7.67;;;15.30;78.00;;;;;;5081823;28;20449;-79
2021/05/13 08:52:53;;;;;;;8.70;7.90;;;14.90;77.30;;;;;;5087039;28;20475;-77
2021/05/13 08:55:28;;;;;;;9.37;8.50;;;15.00;77.90;;;;;;5079355;28;20977;-77
2021/05/13 08:58:03;;;;;;;10.00;8.50;;;15.10;78.00;;;;;;5087782;28;20458;-80
2021/05/13 09:00:38;;;;;;;8.00;7.40;;;15.20;78.10;;;;;;5086173;28;20954;-77
2021/05/13 09:03:14;;;;;;;9.30;8.40;;;15.20;75.80;;;;;;5089887;28;20470;-80
2021/05/13 09:05:55;;;;;;;7.43;6.87;;;15.10;76.40;;;;;;5095557;28;20479;-83
2021/05/13 09:08:27;;;;;;;7.90;7.10;;;15.40;76.60;;;;;;5093755;28;20463;-86
2021/05/13 09:11:11;;;;;;;9.57;8.17;;;15.30;76.50;;;;;;5096897;28;22044;-81
2021/05/13 09:13:49;;;;;;;8.07;7.47;;;14.80;77.20;;;;;;5099363;28;20452;-78
2021/05/13 09:16:35;;;;;;;9.33;8.53;;;14.40;76.60;;;;;;5090473;28;20962;-79
2021/05/13 09:19:27;;;;;;;8.67;7.97;;;15.10;76.30;;;;;;5090999;28;20444;-79
2021/05/13 09:22:08;;;;;;;8.40;7.63;;;14.50;75.80;;;;;;5096147;28;21012;-79
2021/05/13 09:24:55;;;;;;;8.50;7.80;;;15.10;77.80;;;;;;5090848;28;20493;-80
2021/05/13 09:27:34;;;;;;;10.70;7.67;;;15.50;76.90;;;;;;5086596;28;20499;-77
2021/05/13 09:30:17;;;;;;;8.20;7.37;;;15.10;76.90;;;;;;5088713;28;20501;-78
2021/05/13 09:32:55;;;;;;;8.57;7.77;;;15.20;76.60;;;;;;5090726;28;20562;-77
2021/05/13 09:35:32;;;;;;;8.83;7.93;;;15.00;75.90;;;;;;5092380;28;20814;-79
2021/05/13 09:38:08;;;;;;;7.60;7.00;;;15.50;75.90;;;;;;5086535;28;20450;-79
2021/05/13 09:40:50;;;;;;;6.40;5.80;;;15.90;75.90;;;;;;5089363;28;20495;-77
2021/05/13 09:43:26;;;;;;;7.00;6.50;;;15.60;74.70;;;;;;5083739;28;20459;-77
2021/05/13 09:46:03;;;;;;;9.37;6.30;;;16.10;74.80;;;;;;5089738;28;20517;-78
2021/05/13 09:48:42;;;;;;;8.00;6.33;;;15.80;73.10;;;;;;5091319;28;20525;-78
2021/05/13 09:51:27;;;;;;;7.37;6.43;;;16.00;72.70;;;;;;5090808;28;20471;-79
2021/05/13 09:54:15;;;;;;;6.70;6.20;;;16.40;74.30;;;;;;5088386;28;20455;-78
2021/05/13 09:56:52;;;;;;;6.83;5.67;;;16.90;73.40;;;;;;5087905;28;20492;-77
2021/05/13 09:59:34;;;;;;;6.33;5.73;;;17.30;71.30;;;;;;5101638;28;20440;-82
2021/05/13 10:02:13;;;;;;;5.63;5.13;;;16.80;71.20;;;;;;5105972;28;20444;-83
2021/05/13 10:08:26;;;;;;;6.03;5.43;;;16.10;71.30;;;;;;5098194;28;20456;-84
2021/05/13 10:11:09;;;;;;;5.00;4.40;;;16.40;72.80;;;;;;5036308;28;20925;-83
2021/05/13 10:13:51;;;;;;;10.30;5.23;;;16.90;70.70;;;;;;5094224;28;20464;-80
2021/05/13 10:16:31;;;;;;;6.20;5.60;;;17.00;68.90;;;;;;5089728;28;20456;-80
2021/05/13 10:19:09;;;;;;;5.50;5.10;;;16.50;68.50;;;;;;5087873;28;20455;-80
2021/05/13 10:22:26;;;;;;;7.20;5.37;;;15.50;70.30;;;;;;5090474;28;20459;-86
2021/05/13 10:25:24;;;;;;;5.70;5.20;;;16.30;72.60;;;;;;5088726;28;20546;-80
2021/05/13 10:28:01;;;;;;;7.50;5.40;;;16.50;72.10;;;;;;5092160;28;20455;-79
2021/05/13 10:30:38;;;;;;;6.73;5.20;;;15.80;71.30;;;;;;5095192;28;20513;-79
2021/05/13 10:33:21;;;;;;;6.77;5.50;;;15.90;72.00;;;;;;5091270;28;20455;-80
2021/05/13 10:36:16;;;;;;;6.10;5.50;;;15.70;72.80;;;;;;5092686;28;20451;-81
2021/05/13 10:38:59;;;;;;;6.00;5.50;;;15.70;73.70;;;;;;5088700;28;21784;-79
2021/05/13 10:41:46;;;;;;;5.87;5.37;;;15.50;73.20;;;;;;5091533;28;20454;-79
2021/05/13 10:44:54;;;;;;;5.40;4.90;;;15.60;73.60;;;;;;5091549;28;20480;-82
2021/05/13 10:47:33;;;;;;;5.60;5.20;;;15.60;74.00;;;;;;5100058;28;20485;-84
2021/05/13 10:50:08;;;;;;;5.13;4.73;;;15.10;74.50;;;;;;5094529;28;21596;-81
2021/05/13 10:52:44;;;;;;;7.57;5.30;;;14.70;74.50;;;;;;5096751;28;20566;-80
2021/05/13 10:55:38;;;;;;;5.33;4.60;;;15.40;75.30;;;;;;5092839;28;20549;-82
2021/05/13 10:58:14;;;;;;;5.30;4.87;;;16.40;74.50;;;;;;5096490;28;20663;-80
2021/05/13 11:00:48;;;;;;;5.43;4.90;;;15.40;73.60;;;;;;5097118;28;20482;-83
2021/05/13 11:03:26;;;;;;;5.03;4.63;;;16.30;74.20;;;;;;5097759;28;20480;-83
2021/05/13 11:06:00;;;;;;;6.63;5.00;;;16.50;73.40;;;;;;5102260;28;20450;-80
2021/05/13 11:08:50;;;;;;;8.63;5.27;;;16.90;72.00;;;;;;5098331;28;20438;-83
2021/05/13 11:11:24;;;;;;;6.73;5.50;;;16.60;71.50;;;;;;5094699;28;20549;-84
2021/05/13 11:14:13;;;;;;;6.23;5.53;;;15.90;72.90;;;;;;5093622;28;20458;-84
2021/05/13 11:16:53;;;;;;;5.63;5.23;;;16.20;72.40;;;;;;5091416;28;20985;-81
2021/05/13 11:19:37;;;;;;;6.43;5.87;;;15.90;73.00;;;;;;5095672;28;20474;-87
2021/05/13 11:22:13;;;;;;;8.17;5.10;;;16.20;72.90;;;;;;5075925;28;20459;-82
2021/05/13 11:24:48;;;;;;;5.40;4.50;;;16.20;72.50;;;;;;5095531;28;20459;-79
2021/05/13 11:27:36;;;;;;;5.40;5.00;;;16.10;72.30;;;;;;5090073;28;20549;-82
2021/05/13 11:30:13;;;;;;;6.10;5.17;;;15.70;71.30;;;;;;5086966;28;20884;-75
2021/05/13 11:32:48;;;;;;;5.60;5.10;;;16.50;73.50;;;;;;5083945;28;20527;-76
2021/05/13 11:35:22;;;;;;;13.33;5.97;;;15.80;72.20;;;;;;5089518;28;20459;-75
2021/05/13 11:37:56;;;;;;;6.10;5.50;;;16.00;72.50;;;;;;5079419;28;20490;-76
2021/05/13 11:40:35;;;;;;;6.47;5.40;;;15.90;73.00;;;;;;5084229;28;20451;-77
2021/05/13 11:43:28;;;;;;;5.70;4.57;;;15.40;72.40;;;;;;5082164;28;20475;-78
2021/05/13 11:46:05;;;;;;;5.87;5.37;;;15.50;71.90;;;;;;5079874;28;20452;-77
2021/05/13 11:48:40;;;;;;;5.67;5.20;;;14.80;72.20;;;;;;5088046;28;20451;-76
2021/05/13 11:51:18;;;;;;;6.17;5.30;;;15.30;73.60;;;;;;5090133;28;20475;-76
2021/05/13 11:53:53;;;;;;;6.17;5.63;;;15.10;73.30;;;;;;5087989;28;20557;-76
2021/05/13 11:56:30;;;;;;;9.87;5.93;;;16.20;72.50;;;;;;5089969;28;20524;-77
2021/05/13 11:59:05;;;;;;;8.07;5.63;;;16.50;71.00;;;;;;5089523;28;20480;-76
2021/05/13 12:01:42;;;;;;;6.50;5.10;;;16.50;71.50;;;;;;5090979;28;20834;-77
2021/05/13 12:04:16;;;;;;;6.80;5.53;;;15.20;70.30;;;;;;5091896;28;20523;-77
2021/05/13 12:06:57;;;;;;;5.50;5.00;;;15.30;70.00;;;;;;5091379;28;20480;-77
2021/05/13 12:09:33;;;;;;;7.20;5.10;;;15.80;69.70;;;;;;5087501;28;20540;-76
2021/05/13 12:12:09;;;;;;;4.80;4.40;;;15.40;69.60;;;;;;5087973;28;20520;-77
2021/05/13 12:14:49;;;;;;;4.83;3.97;;;16.20;69.30;;;;;;5086647;28;20455;-83
2021/05/13 12:17:26;;;;;;;5.07;4.40;;;15.10;69.20;;;;;;5092775;28;20454;-79
2021/05/13 12:20:00;;;;;;;4.17;3.73;;;14.70;70.00;;;;;;5090464;28;20451;-75
2021/05/13 12:22:35;;;;;;;6.13;4.07;;;15.70;70.70;;;;;;5089332;28;20453;-76
2021/05/13 12:25:11;;;;;;;5.07;4.40;;;16.30;70.50;;;;;;5088647;28;20499;-76
2021/05/13 12:27:46;;;;;;;5.97;4.33;;;16.80;68.30;;;;;;5090294;28;20465;-76
2021/05/13 12:30:23;;;;;;;5.00;4.50;;;16.10;68.60;;;;;;5091566;28;20455;-76
2021/05/13 12:32:59;;;;;;;6.47;4.37;;;15.50;68.80;;;;;;5088615;28;20768;-78
2021/05/13 12:35:34;;;;;;;4.60;3.77;;;16.10;69.50;;;;;;5091046;28;20461;-76
2021/05/13 12:38:20;;;;;;;4.90;4.23;;;16.20;69.00;;;;;;5090763;28;20458;-76
2021/05/13 12:41:12;;;;;;;3.97;3.63;;;16.10;68.20;;;;;;5095164;28;20593;-78
2021/05/13 12:43:54;;;;;;;4.73;4.17;;;15.90;68.50;;;;;;5089349;28;20912;-77
2021/05/13 12:46:30;;;;;;;5.13;3.60;;;16.40;68.00;;;;;;5097071;28;20455;-79
2021/05/13 12:49:07;;;;;;;4.70;4.30;;;15.90;67.60;;;;;;5091591;28;20473;-75
2021/05/13 12:51:41;;;;;;;4.60;3.83;;;16.20;67.60;;;;;;5092207;28;20467;-77
2021/05/13 12:54:24;;;;;;;3.87;3.33;;;16.90;67.60;;;;;;5093428;28;20865;-77
2021/05/13 12:57:15;;;;;;;5.27;3.43;;;16.70;66.80;;;;;;5098979;28;20477;-74
2021/05/13 12:59:57;;;;;;;4.30;3.90;;;16.80;66.30;;;;;;5092952;28;20456;-77
2021/05/13 13:02:33;;;;;;;3.93;3.63;;;16.50;65.80;;;;;;5094198;28;20986;-78
2021/05/13 13:05:11;;;;;;;4.00;3.47;;;16.60;66.10;;;;;;5093505;28;20488;-77
2021/05/13 13:07:51;;;;;;;6.50;3.43;;;16.40;66.40;;;;;;5090525;28;20500;-76
2021/05/13 13:10:32;;;;;;;4.80;3.80;;;16.10;66.00;;;;;;5094958;28;20452;-78
2021/05/13 13:13:19;;;;;;;5.10;4.33;;;16.00;65.80;;;;;;5094747;28;20452;-76
2021/05/13 13:16:00;;;;;;;4.03;3.50;;;15.90;66.50;;;;;;5091787;28;20463;-75
2021/05/13 13:18:36;;;;;;;4.47;4.07;;;16.30;66.50;;;;;;5092150;28;20457;-77
2021/05/13 13:21:19;;;;;;;4.20;3.70;;;15.80;66.50;;;;;;5096257;28;20521;-77
2021/05/13 13:23:54;;;;;;;4.10;3.80;;;15.70;65.80;;;;;;5095958;28;20464;-76
2021/05/13 13:26:34;;;;;;;5.40;3.63;;;15.60;67.00;;;;;;5094436;28;20454;-76
2021/05/13 13:29:09;;;;;;;5.33;3.60;;;14.80;67.00;;;;;;5094840;28;20446;-76
2021/05/13 13:31:45;;;;;;;4.47;4.07;;;15.50;67.70;;;;;;5096237;28;20479;-76
2021/05/13 13:34:21;;;;;;;6.50;4.50;;;15.70;66.00;;;;;;5098347;28;20445;-75
2021/05/13 13:36:57;;;;;;;4.90;4.50;;;15.40;66.50;;;;;;5092412;28;20965;-76
2021/05/13 13:39:32;;;;;;;5.37;4.07;;;15.30;66.30;;;;;;5091749;28;20484;-77
2021/05/13 13:42:09;;;;;;;5.47;4.47;;;15.20;66.80;;;;;;5094460;28;20474;-75
2021/05/13 13:44:45;;;;;;;4.77;4.37;;;15.10;67.90;;;;;;5086986;28;21203;-76
2021/05/13 13:47:20;;;;;;;7.77;5.20;;;15.10;67.80;;;;;;5092014;28;20488;-77
2021/05/13 13:49:55;;;;;;;5.93;4.50;;;15.10;68.90;;;;;;5095108;28;20453;-77
2021/05/13 13:52:31;;;;;;;5.73;4.70;;;15.30;69.50;;;;;;5091750;28;20503;-76
2021/05/13 13:55:06;;;;;;;5.43;4.93;;;15.70;69.00;;;;;;5095517;28;20753;-75